Time;durP1;ratioP1;P1;durP2;ratioP2;P2;SDS_P1;SDS_P2;PMS_P1;PMS_P2;Temp;Humidity;BMP_temperature;BMP_pressure;BME280_temperature;BME280_humidity;BME280_pressure;Samples;Min_cycle;Max_cycle;Signal;HPM_P1;HPM_P2
2021/08/18 00:02:14;;;;;;;22.25;12.82;;;;;;;11.98;100.00;95340.72;5050720;28;20021;-56
2021/08/18 00:04:42;;;;;;;25.42;13.35;;;;;;;11.98;100.00;95331.84;5052231;28;20605;-55
2021/08/18 00:07:07;;;;;;;26.63;12.75;;;;;;;11.97;100.00;95324.88;5052100;28;20028;-54
2021/08/18 00:09:40;;;;;;;23.77;14.10;;;;;;;11.97;100.00;95331.06;5051944;28;20435;-58
2021/08/18 00:12:06;;;;;;;25.38;13.38;;;;;;;11.94;100.00;95323.53;5052178;28;20029;-58
2021/08/18 00:14:35;;;;;;;26.17;14.35;;;;;;;11.94;100.00;95322.72;5051738;28;20036;-57
2021/08/18 00:17:01;;;;;;;23.13;13.45;;;;;;;11.91;100.00;95326.75;5050834;28;20033;-58
2021/08/18 00:19:27;;;;;;;26.35;13.70;;;;;;;11.89;100.00;95326.22;5051977;28;20387;-58
2021/08/18 00:21:53;;;;;;;22.33;13.25;;;;;;;11.87;100.00;95320.31;5052087;28;20192;-55
2021/08/18 00:24:20;;;;;;;24.02;13.55;;;;;;;11.88;100.00;95324.59;5050607;28;20533;-58
2021/08/18 00:26:46;;;;;;;24.48;13.98;;;;;;;11.88;100.00;95328.09;5052022;28;20021;-57
2021/08/18 00:29:14;;;;;;;27.52;14.02;;;;;;;11.87;100.00;95331.84;5055181;28;20025;-58
2021/08/18 00:31:40;;;;;;;24.27;13.57;;;;;;;11.87;100.00;95325.66;5063926;28;20479;-57
2021/08/18 00:34:07;;;;;;;26.50;14.27;;;;;;;11.88;100.00;95321.91;5050615;28;20032;-59
2021/08/18 00:36:33;;;;;;;22.38;13.48;;;;;;;11.87;100.00;95313.06;5050682;28;20112;-56
2021/08/18 00:39:04;;;;;;;23.85;13.80;;;;;;;11.89;100.00;95307.41;5051841;28;20043;-58
2021/08/18 00:41:36;;;;;;;22.90;13.43;;;;;;;11.90;100.00;95315.19;5051711;28;20466;-58
2021/08/18 00:44:04;;;;;;;22.50;12.20;;;;;;;11.91;100.00;95302.59;5051795;28;20200;-58
2021/08/18 00:46:49;;;;;;;25.02;13.15;;;;;;;11.94;100.00;95298.53;5051788;28;20029;-58
2021/08/18 00:49:18;;;;;;;22.10;12.80;;;;;;;11.93;100.00;95289.69;5051684;28;20021;-59
2021/08/18 00:51:45;;;;;;;22.40;13.23;;;;;;;11.92;100.00;95288.09;5050558;28;20023;-59
2021/08/18 00:54:14;;;;;;;24.95;13.32;;;;;;;11.92;100.00;95280.03;5051488;28;20111;-58
2021/08/18 00:56:44;;;;;;;22.23;12.93;;;;;;;11.94;100.00;95285.13;5051727;28;20037;-59
2021/08/18 00:59:21;;;;;;;24.63;13.90;;;;;;;11.95;100.00;95278.72;5054166;28;20040;-58
2021/08/18 01:01:46;;;;;;;23.35;13.23;;;;;;;11.96;100.00;95277.63;5053994;28;20502;-59
2021/08/18 01:04:20;;;;;;;26.88;13.90;;;;;;;11.96;100.00;95267.69;5055361;28;20029;-58
2021/08/18 01:06:46;;;;;;;25.13;13.40;;;;;;;11.95;100.00;95267.97;5055226;28;20487;-59
2021/08/18 01:09:19;;;;;;;24.83;12.82;;;;;;;11.94;100.00;95269.84;5055218;28;20040;-59
2021/08/18 01:11:49;;;;;;;21.60;13.13;;;;;;;11.93;100.00;95257.47;5055158;28;20031;-59
2021/08/18 01:14:16;;;;;;;28.88;14.38;;;;;;;11.91;100.00;95262.31;5053808;28;20032;-59
2021/08/18 01:16:49;;;;;;;27.25;14.68;;;;;;;11.89;100.00;95259.09;5053874;28;20503;-58
2021/08/18 01:19:16;;;;;;;;;;;;;;;11.87;100.00;95245.97;5055192;28;20389;-57
2021/08/18 01:21:45;;;;;;;25.48;13.63;;;;;;;11.87;100.00;95250.53;5055192;28;19908;-59
2021/08/18 01:24:12;;;;;;;27.13;14.57;;;;;;;11.84;100.00;95238.44;5054981;28;20031;-56
2021/08/18 01:26:39;;;;;;;24.00;13.73;;;;;;;11.85;100.00;95233.88;5054361;28;20033;-60
2021/08/18 01:29:07;;;;;;;25.20;13.32;;;;;;;11.85;100.00;95233.88;5057467;28;20391;-58
2021/08/18 01:31:33;;;;;;;30.02;14.70;;;;;;;11.85;100.00;95231.19;5067725;28;20033;-59
2021/08/18 01:34:03;;;;;;;26.45;14.13;;;;;;;11.84;100.00;95233.09;5053350;28;20020;-59
2021/08/18 01:36:29;;;;;;;25.27;13.85;;;;;;;11.85;100.00;95231.19;5054777;28;20025;-58
2021/08/18 01:39:06;;;;;;;27.15;14.43;;;;;;;11.85;100.00;95229.31;5054707;28;20025;-56
2021/08/18 01:41:36;;;;;;;26.55;14.93;;;;;;;11.86;100.00;95227.44;5073570;28;20044;-59
2021/08/18 01:44:04;;;;;;;29.65;15.00;;;;;;;11.85;100.00;95225.84;5055253;28;20078;-59
2021/08/18 01:46:29;;;;;;;22.13;13.65;;;;;;;11.85;100.00;95220.47;5053511;28;20029;-59
2021/08/18 01:48:59;;;;;;;26.15;14.57;;;;;;;11.85;100.00;95226.63;5054412;28;20032;-59
2021/08/18 01:51:24;;;;;;;23.27;13.20;;;;;;;11.88;100.00;95228.78;5053496;28;20029;-59
2021/08/18 01:53:49;;;;;;;23.83;13.52;;;;;;;11.90;100.00;95223.13;5052325;28;20017;-58
2021/08/18 01:56:19;;;;;;;27.90;14.27;;;;;;;11.93;100.00;95219.91;5052370;28;20055;-59
2021/08/18 01:58:48;;;;;;;25.88;13.40;;;;;;;11.94;100.00;95216.16;5051800;28;20024;-56
2021/08/18 02:01:15;;;;;;;25.38;13.50;;;;;;;11.95;100.00;95212.41;5053600;28;20051;-59
2021/08/18 02:03:46;;;;;;;26.45;13.90;;;;;;;11.96;100.00;95205.97;5052103;28;20476;-58
2021/08/18 02:06:20;;;;;;;25.88;13.88;;;;;;;11.96;100.00;95199.78;5053551;28;20537;-58
2021/08/18 02:08:46;;;;;;;27.35;14.23;;;;;;;11.96;100.00;95191.75;5052514;28;20033;-57
2021/08/18 02:11:16;;;;;;;26.23;14.20;;;;;;;11.96;100.00;95189.06;5052024;28;20027;-58
2021/08/18 02:13:42;;;;;;;27.85;14.45;;;;;;;11.95;100.00;95193.63;5057132;28;20467;-60
2021/08/18 02:16:13;;;;;;;27.60;14.32;;;;;;;11.95;100.00;95185.56;5052022;28;20036;-58
2021/08/18 02:18:38;;;;;;;24.00;13.68;;;;;;;11.98;100.00;95176.16;5053078;28;20029;-59
2021/08/18 02:21:11;;;;;;;23.52;13.32;;;;;;;12.02;100.00;95166.47;5053071;28;20086;-56
2021/08/18 02:23:36;;;;;;;28.05;14.75;;;;;;;12.09;100.00;95170.50;5055140;28;20021;-56
2021/08/18 02:26:14;;;;;;;23.85;14.00;;;;;;;12.14;100.00;95167.78;5055065;28;20028;-57
2021/08/18 02:28:39;;;;;;;24.15;14.85;;;;;;;12.17;100.00;95164.59;5054641;28;20024;-55
2021/08/18 02:31:05;;;;;;;28.23;15.00;;;;;;;12.18;100.00;95166.19;5072740;28;20486;-57
2021/08/18 02:33:39;;;;;;;23.52;13.93;;;;;;;12.23;100.00;95167.25;5072599;28;20424;-58
2021/08/18 02:36:05;;;;;;;24.92;14.40;;;;;;;12.27;100.00;95176.38;5054764;28;20043;-59
2021/08/18 02:38:33;;;;;;;26.83;13.90;;;;;;;12.29;100.00;95172.34;5072585;28;20521;-58
2021/08/18 02:40:59;;;;;;;27.27;13.73;;;;;;;12.31;100.00;95174.75;5070842;28;20502;-58
2021/08/18 02:43:52;;;;;;;22.75;12.90;;;;;;;12.29;100.00;95175.03;5052751;28;20081;-57
2021/08/18 02:46:19;;;;;;;;;;;;;;;12.32;100.00;95181.72;5052865;28;20028;-59
2021/08/18 02:48:45;;;;;;;26.85;13.30;;;;;;;12.36;100.00;95188.94;5054931;28;19920;-57
2021/08/18 02:51:11;;;;;;;24.20;13.75;;;;;;;12.39;100.00;95183.06;5052411;28;20464;-58
2021/08/18 02:53:42;;;;;;;25.35;13.63;;;;;;;12.44;100.00;95174.97;5051426;28;20056;-59
2021/08/18 02:56:10;;;;;;;24.05;13.27;;;;;;;12.47;100.00;95177.09;5051415;28;20487;-58
2021/08/18 02:58:36;;;;;;;24.52;13.13;;;;;;;12.45;100.00;95176.56;5052029;28;20029;-59
2021/08/18 03:01:09;;;;;;;22.23;12.45;;;;;;;12.45;100.00;95178.44;5052219;28;20605;-58
2021/08/18 03:03:34;;;;;;;24.25;13.70;;;;;;;12.49;100.00;95184.91;5052121;28;20069;-58
2021/08/18 03:06:00;;;;;;;26.40;13.70;;;;;;;12.54;100.00;95184.06;5052251;28;20020;-58
2021/08/18 03:08:30;;;;;;;25.85;13.70;;;;;;;12.52;100.00;95184.34;5054189;28;20494;-58
2021/08/18 03:11:06;;;;;;;23.92;13.15;;;;;;;12.54;100.00;95182.19;5053595;28;20024;-59
2021/08/18 03:13:34;;;;;;;21.83;12.48;;;;;;;12.56;100.00;95171.97;5073447;28;20467;-58
2021/08/18 03:16:03;;;;;;;26.00;14.75;;;;;;;12.58;100.00;95169.78;5064826;28;20033;-59
2021/08/18 03:18:31;;;;;;;22.70;13.23;;;;;;;12.57;100.00;95164.69;5071865;28;20032;-59
2021/08/18 03:20:58;;;;;;;24.20;13.00;;;;;;;12.60;100.00;95166.88;5052825;28;20020;-57
2021/08/18 03:23:26;;;;;;;26.10;13.88;;;;;;;12.63;100.00;95161.72;5071676;28;20115;-58
2021/08/18 03:25:52;;;;;;;24.50;13.52;;;;;;;12.65;100.00;95150.69;5071880;28;20521;-57
2021/08/18 03:28:17;;;;;;;24.00;12.80;;;;;;;12.65;100.00;95146.13;5071543;28;20052;-57
2021/08/18 03:30:43;;;;;;;23.55;13.60;;;;;;;12.66;100.00;95139.69;5071375;28;20594;-55
2021/08/18 03:33:14;;;;;;;20.85;12.40;;;;;;;12.65;100.00;95138.06;5071766;28;20052;-58
2021/08/18 03:35:43;;;;;;;23.45;13.65;;;;;;;12.68;100.00;95142.88;5071837;28;20037;-58
2021/08/18 03:38:08;;;;;;;25.45;13.65;;;;;;;12.68;100.00;95139.41;5071695;28;20052;-58
2021/08/18 03:40:37;;;;;;;21.17;12.85;;;;;;;12.65;100.00;95143.44;5052836;28;20563;-57
2021/08/18 03:43:11;;;;;;;25.55;13.45;;;;;;;12.61;100.00;95147.78;5059804;28;20058;-58
2021/08/18 03:45:36;;;;;;;22.65;12.68;;;;;;;12.60;100.00;95148.84;5053564;28;20036;-58
2021/08/18 03:48:04;;;;;;;21.73;12.63;;;;;;;12.56;100.00;95150.47;5071528;28;20024;-58
2021/08/18 03:50:30;;;;;;;21.35;12.50;;;;;;;12.55;100.00;95153.44;5070893;28;20390;-58
2021/08/18 03:52:58;;;;;;;21.60;12.55;;;;;;;12.49;100.00;95155.34;5071436;28;20020;-58
2021/08/18 03:55:24;;;;;;;23.48;12.77;;;;;;;12.47;100.00;95155.59;5071183;28;20054;-59
2021/08/18 03:58:07;;;;;;;22.05;12.82;;;;;;;12.42;100.00;95158.31;5071525;28;20028;-58
2021/08/18 04:00:32;;;;;;;24.33;13.15;;;;;;;12.43;100.00;95161.81;5053287;28;20086;-58
2021/08/18 04:03:04;;;;;;;21.92;12.35;;;;;;;12.45;100.00;95162.34;5071220;28;20376;-58
2021/08/18 04:05:29;;;;;;;22.50;12.90;;;;;;;12.45;100.00;95173.06;5071381;28;20038;-58
2021/08/18 04:07:58;;;;;;;22.92;12.32;;;;;;;12.44;100.00;95171.47;5071196;28;20493;-57
2021/08/18 04:10:24;;;;;;;21.48;12.77;;;;;;;12.45;100.00;95171.19;5070797;28;20025;-58
2021/08/18 04:12:54;;;;;;;31.92;13.68;;;;;;;12.45;100.00;95176.56;5053328;28;20144;-58
2021/08/18 04:15:34;;;;;;;21.27;12.35;;;;;;;12.48;100.00;95183.25;5071375;28;20394;-58
2021/08/18 04:18:00;;;;;;;20.23;11.93;;;;;;;12.48;100.00;95184.09;5071447;28;20385;-58
2021/08/18 04:20:26;;;;;;;22.70;13.18;;;;;;;12.47;100.00;95182.47;5070743;28;20021;-58
2021/08/18 04:22:51;;;;;;;22.65;12.60;;;;;;;12.46;100.00;95182.75;5071040;28;20387;-53
2021/08/18 04:25:19;;;;;;;22.73;12.10;;;;;;;12.44;100.00;95188.41;5071164;28;20035;-56
2021/08/18 04:27:47;;;;;;;21.40;11.95;;;;;;;12.44;100.00;95187.59;5053244;28;20028;-56
2021/08/18 04:30:16;;;;;;;22.30;12.90;;;;;;;12.40;100.00;95198.09;5070783;28;20097;-59
2021/08/18 04:32:45;;;;;;;21.02;12.02;;;;;;;12.40;100.00;95205.34;5073165;28;20029;-55
2021/08/18 04:35:17;;;;;;;23.17;11.77;;;;;;;12.39;100.00;95207.22;5040540;28;20039;-55
2021/08/18 04:37:43;;;;;;;22.60;11.90;;;;;;;12.38;100.00;95211.00;5075107;28;20099;-55
2021/08/18 04:40:10;;;;;;;19.13;11.75;;;;;;;12.36;100.00;95215.81;5066748;23;20152;-53
2021/08/18 04:42:41;;;;;;;20.45;11.48;;;;;;;12.36;100.00;95223.06;5020960;28;20144;-52
2021/08/18 04:45:14;;;;;;;22.42;13.73;;;;;;;12.36;100.00;95226.56;5026377;28;20025;-55
2021/08/18 04:47:46;;;;;;;21.98;12.23;;;;;;;12.36;100.00;95220.38;5035760;28;20017;-55
2021/08/18 04:50:15;;;;;;;19.52;11.77;;;;;;;12.38;100.00;95231.69;5036404;28;20025;-54
2021/08/18 04:52:43;;;;;;;23.70;12.05;;;;;;;12.35;100.00;95234.88;5035581;28;20388;-51
2021/08/18 04:55:13;;;;;;;22.67;12.25;;;;;;;12.37;100.00;95230.88;5035493;28;20487;-54
2021/08/18 04:57:42;;;;;;;20.27;11.85;;;;;;;12.36;100.00;95234.59;5035365;28;20021;-52
2021/08/18 05:00:12;;;;;;;19.38;11.27;;;;;;;12.38;100.00;95242.41;5035200;28;20021;-56
2021/08/18 05:02:37;;;;;;;21.98;11.68;;;;;;;12.37;100.00;95238.09;5017842;28;20545;-53
2021/08/18 05:05:15;;;;;;;20.02;10.90;;;;;;;12.45;100.00;95237.56;5035393;28;20017;-54
2021/08/18 05:07:40;;;;;;;22.30;11.75;;;;;;;12.44;100.00;95236.75;5035674;28;20026;-54
2021/08/18 05:10:09;;;;;;;20.92;11.65;;;;;;;12.46;100.00;95234.59;5035121;28;20022;-51
2021/08/18 05:12:38;;;;;;;22.48;11.90;;;;;;;12.47;100.00;95241.56;5035599;28;20491;-51
2021/08/18 05:15:05;;;;;;;21.35;10.82;;;;;;;12.44;100.00;95241.31;5004625;28;20104;-51
2021/08/18 05:17:30;;;;;;;17.70;10.15;;;;;;;12.48;100.00;95229.78;5015319;28;20080;-51
2021/08/18 05:19:58;;;;;;;18.63;10.98;;;;;;;12.51;100.00;95236.47;5015249;28;20037;-52
2021/08/18 05:22:23;;;;;;;21.63;10.18;;;;;;;12.53;100.00;95223.56;5015262;28;20034;-56
2021/08/18 05:24:49;;;;;;;20.02;9.93;;;;;;;12.56;100.00;95217.63;5007894;28;20025;-55
2021/08/18 05:27:17;;;;;;;18.30;10.00;;;;;;;12.59;100.00;95210.91;5034682;28;20039;-51
2021/08/18 05:29:43;;;;;;;19.58;11.00;;;;;;;12.63;100.00;95211.97;5017037;28;20076;-55
2021/08/18 05:32:09;;;;;;;19.25;9.77;;;;;;;12.64;100.00;95209.03;5021050;28;20030;-54
2021/08/18 05:34:34;;;;;;;16.92;10.30;;;;;;;12.66;100.00;95203.38;5000574;28;20057;-59
2021/08/18 05:37:00;;;;;;;16.33;9.65;;;;;;;12.67;100.00;95200.41;5015101;28;20057;-54
2021/08/18 05:39:25;;;;;;;19.00;9.82;;;;;;;12.69;100.00;95192.88;5021536;28;20364;-55
2021/08/18 05:41:53;;;;;;;16.50;10.23;;;;;;;12.75;100.00;95178.34;5013152;28;20057;-54
2021/08/18 05:44:19;;;;;;;20.52;10.60;;;;;;;12.83;100.00;95178.84;5006729;28;20420;-56
2021/08/18 05:46:45;;;;;;;20.88;11.00;;;;;;;12.87;100.00;95167.25;4993221;28;20022;-55
2021/08/18 05:49:10;;;;;;;17.90;9.90;;;;;;;12.90;100.00;95158.63;5000419;28;20042;-56
2021/08/18 05:51:36;;;;;;;16.77;9.98;;;;;;;12.93;100.00;95143.84;4992491;28;20109;-52
2021/08/18 05:54:01;;;;;;;19.30;9.02;;;;;;;13.00;100.00;95139.75;5008818;28;20022;-60
2021/08/18 05:56:29;;;;;;;16.45;8.90;;;;;;;13.05;100.00;95125.50;5013013;28;20029;-56
2021/08/18 05:58:55;;;;;;;17.13;8.88;;;;;;;13.12;100.00;95120.59;5013018;28;20681;-53
2021/08/18 06:01:22;;;;;;;18.60;9.60;;;;;;;13.17;100.00;95104.44;4941493;28;20041;-56
2021/08/18 06:03:48;;;;;;;16.52;9.15;;;;;;;13.24;100.00;95104.94;4986876;28;20040;-53
2021/08/18 06:06:13;;;;;;;17.25;9.90;;;;;;;13.28;100.00;95105.97;5013179;28;20026;-52
2021/08/18 06:08:39;;;;;;;19.00;9.48;;;;;;;13.34;100.00;95087.91;5036740;28;20052;-55
2021/08/18 06:11:07;;;;;;;21.00;10.10;;;;;;;13.43;100.00;95083.53;5016372;28;20384;-55
2021/08/18 06:13:36;;;;;;;17.33;8.95;;;;;;;13.47;100.00;95079.19;5033815;28;20021;-53
2021/08/18 06:16:01;;;;;;;20.48;9.00;;;;;;;13.53;100.00;95066.50;5023374;28;20104;-54
2021/08/18 06:18:27;;;;;;;17.27;9.80;;;;;;;13.62;100.00;95065.59;5034782;28;20083;-53
2021/08/18 06:20:52;;;;;;;17.63;9.40;;;;;;;13.66;100.00;95059.63;5033890;28;20488;-54
2021/08/18 06:23:21;;;;;;;16.38;9.38;;;;;;;13.71;100.00;95043.44;5040394;28;20079;-55
2021/08/18 06:25:47;;;;;;;18.85;8.75;;;;;;;13.76;100.00;95041.50;5037745;28;20027;-51
2021/08/18 06:28:16;;;;;;;14.88;8.60;;;;;;;13.82;100.00;95042.25;5018908;28;20421;-54
2021/08/18 06:30:41;;;;;;;15.88;8.98;;;;;;;13.87;100.00;95034.09;5028908;28;20025;-57
2021/08/18 06:33:07;;;;;;;23.00;8.57;;;;;;;13.90;100.00;95034.34;5025818;28;20107;-54
2021/08/18 06:35:33;;;;;;;13.65;9.05;;;;;;;13.87;100.00;95037.59;5016205;28;20122;-56
2021/08/18 06:37:58;;;;;;;16.38;8.30;;;;;;;13.91;100.00;95032.47;5012830;28;20044;-55
2021/08/18 06:40:27;;;;;;;17.02;9.48;;;;;;;13.91;100.00;95041.34;5029901;28;20495;-54
2021/08/18 06:42:52;;;;;;;15.98;8.70;;;;;;;13.93;100.00;95038.38;5036250;28;20027;-54
2021/08/18 06:45:23;;;;;;;14.32;8.52;;;;;;;13.97;100.00;95043.97;5016122;28;20385;-51
2021/08/18 06:47:49;;;;;;;16.23;8.52;;;;;;;14.00;100.00;95052.28;5013712;28;20025;-53
2021/08/18 06:50:21;;;;;;;20.42;8.65;;;;;;;14.03;100.00;95049.03;5013505;28;20496;-53
2021/08/18 06:52:54;;;;;;;18.55;8.63;;;;;;;14.03;100.00;95061.69;5012373;28;20026;-52
2021/08/18 06:55:22;;;;;;;18.80;8.93;;;;;;;14.09;100.00;95065.91;5013616;28;20034;-52
2021/08/18 06:57:50;;;;;;;15.07;9.27;;;;;;;14.08;100.00;95062.41;4996250;28;20029;-54
2021/08/18 07:00:16;;;;;;;16.20;8.30;;;;;;;14.11;100.00;95072.63;5012245;28;20022;-51
2021/08/18 07:02:46;;;;;;;13.43;8.45;;;;;;;14.20;100.00;95070.09;5013307;28;20080;-51
2021/08/18 07:05:13;;;;;;;16.95;8.95;;;;;;;14.26;100.00;95071.63;5013950;28;20369;-55
2021/08/18 07:07:42;;;;;;;13.90;9.07;;;;;;;14.34;100.00;95083.69;5013299;28;20504;-55
2021/08/18 07:10:12;;;;;;;14.75;8.73;;;;;;;14.36;100.00;95084.19;5013279;28;20570;-55
2021/08/18 07:12:41;;;;;;;18.60;9.10;;;;;;;14.37;100.00;95091.19;5011849;28;20575;-50
2021/08/18 07:15:10;;;;;;;14.85;8.65;;;;;;;14.38;100.00;95084.69;5013115;28;20036;-54
2021/08/18 07:17:35;;;;;;;14.65;7.93;;;;;;;14.39;100.00;95087.09;5013129;28;20075;-54
2021/08/18 07:20:00;;;;;;;17.13;8.60;;;;;;;14.39;100.00;95094.38;5015174;28;20112;-55
2021/08/18 07:22:26;;;;;;;15.75;8.40;;;;;;;14.43;100.00;95098.09;5032669;28;20503;-53
2021/08/18 07:24:51;;;;;;;14.30;8.25;;;;;;;14.42;100.00;95102.69;5015146;28;20125;-55
2021/08/18 07:27:18;;;;;;;16.35;8.70;;;;;;;14.52;100.00;95101.78;5032625;28;20025;-51
2021/08/18 07:29:46;;;;;;;19.55;8.68;;;;;;;14.56;100.00;95102.03;4998764;28;20025;-54
2021/08/18 07:32:11;;;;;;;13.35;7.93;;;;;;;14.64;100.00;95098.66;5032468;28;20022;-53
2021/08/18 07:34:40;;;;;;;14.77;8.30;;;;;;;14.67;100.00;95098.13;5032475;28;20539;-56
2021/08/18 07:37:10;;;;;;;16.05;8.50;;;;;;;14.73;100.00;95094.25;5008707;28;20044;-52
2021/08/18 07:39:39;;;;;;;17.63;8.35;;;;;;;14.81;100.00;95100.88;5015127;28;20025;-52
2021/08/18 07:42:05;;;;;;;12.75;7.93;;;;;;;14.88;100.00;95104.03;5024691;28;20041;-53
2021/08/18 07:44:31;;;;;;;12.07;7.85;;;;;;;14.95;100.00;95115.25;5015733;28;20515;-59
2021/08/18 07:46:58;;;;;;;12.80;8.05;;;;;;;14.97;100.00;95119.25;5010623;28;20479;-54
2021/08/18 07:49:24;;;;;;;15.68;7.93;;;;;;;15.01;100.00;95114.88;5038190;28;20029;-54
2021/08/18 07:51:49;;;;;;;13.23;7.63;;;;;;;15.01;100.00;95120.28;5009617;28;20519;-54
2021/08/18 07:54:15;;;;;;;13.57;7.70;;;;;;;15.10;100.00;95112.34;5030166;28;20020;-52
2021/08/18 07:56:48;;;;;;;15.93;8.45;;;;;;;15.14;100.00;95109.84;5031441;28;20021;-55
2021/08/18 07:59:14;;;;;;;16.13;7.88;;;;;;;15.18;100.00;95110.88;5023465;28;20025;-65
2021/08/18 08:01:40;;;;;;;14.20;7.95;;;;;;;15.27;100.00;95118.00;5023342;28;20022;-53
2021/08/18 08:04:06;;;;;;;14.02;7.93;;;;;;;15.33;100.00;95118.75;5035198;28;20025;-59
2021/08/18 08:06:31;;;;;;;15.85;8.45;;;;;;;15.42;100.00;95126.97;5028142;28;21695;-53
2021/08/18 08:09:01;;;;;;;11.75;7.32;;;;;;;15.49;100.00;95128.19;5007929;28;20029;-53
2021/08/18 08:11:27;;;;;;;15.82;8.80;;;;;;;15.56;100.00;95138.63;5028179;28;20022;-54
2021/08/18 08:13:52;;;;;;;18.75;7.72;;;;;;;15.59;100.00;95146.13;5031060;28;20432;-54
2021/08/18 08:16:21;;;;;;;16.95;7.80;;;;;;;15.71;100.00;95157.28;5009792;28;20116;-51
2021/08/18 08:18:48;;;;;;;17.08;9.00;;;;;;;15.84;100.00;95150.34;5017808;28;20549;-54
2021/08/18 08:21:16;;;;;;;14.85;8.45;;;;;;;15.87;100.00;95164.06;5025837;28;20036;-54
2021/08/18 08:23:42;;;;;;;14.38;7.75;;;;;;;15.93;100.00;95164.75;5031092;28;20391;-52
2021/08/18 08:26:08;;;;;;;17.63;8.38;;;;;;;15.97;100.00;95176.59;5031043;28;20025;-54
2021/08/18 08:28:33;;;;;;;14.90;8.50;;;;;;;16.09;100.00;95176.13;5013351;28;20025;-50
2021/08/18 08:30:59;;;;;;;13.50;8.40;;;;;;;16.23;100.00;95169.63;5013065;28;20033;-50
2021/08/18 08:33:25;;;;;;;14.23;8.05;;;;;;;16.31;100.00;95162.75;5012560;28;20034;-50
2021/08/18 08:36:07;;;;;;;14.13;8.30;;;;;;;16.26;100.00;95189.84;5011480;28;20045;-51
2021/08/18 08:38:35;;;;;;;13.50;7.72;;;;;;;16.23;100.00;95210.19;5018286;28;20025;-50
2021/08/18 08:41:07;;;;;;;12.35;8.02;;;;;;;16.22;100.00;95232.91;5017652;28;20144;-51
2021/08/18 08:43:32;;;;;;;12.57;7.45;;;;;;;16.31;100.00;95237.63;5030789;28;20024;-51
2021/08/18 08:46:04;;;;;;;16.15;8.63;;;;;;;16.35;100.00;95247.53;5030990;28;20026;-55
2021/08/18 08:48:33;;;;;;;14.02;8.18;;;;;;;16.40;100.00;95236.66;5030816;28;20039;-53
2021/08/18 08:50:59;;;;;;;16.38;8.85;;;;;;;16.49;100.00;95220.53;5031178;28;20018;-51
2021/08/18 08:53:25;;;;;;;13.95;7.38;;;;;;;16.58;100.00;95212.53;5030242;28;20036;-50
2021/08/18 08:55:53;;;;;;;11.55;7.30;;;;;;;16.65;100.00;95234.59;5030926;28;20028;-53
2021/08/18 08:58:18;;;;;;;14.65;8.13;;;;;;;16.75;100.00;95247.94;5031004;28;20472;-52
2021/08/18 09:00:44;;;;;;;14.05;8.13;;;;;;;16.83;100.00;95239.13;5030901;28;20032;-50
2021/08/18 09:03:23;;;;;;;15.25;8.13;;;;;;;16.90;100.00;95236.81;5030250;28;20132;-53
2021/08/18 09:06:05;;;;;;;14.57;8.30;;;;;;;16.80;100.00;95301.94;5031079;28;20484;-54
2021/08/18 09:08:47;;;;;;;14.60;8.20;;;;;;;16.80;100.00;95310.84;5023770;28;20021;-54
2021/08/18 09:11:16;;;;;;;13.40;7.85;;;;;;;16.86;100.00;95291.84;5018318;28;20060;-55
2021/08/18 09:13:51;;;;;;;12.48;8.10;;;;;;;16.88;100.00;95301.25;5014499;28;20025;-52
2021/08/18 09:16:22;;;;;;;13.30;8.23;;;;;;;16.85;100.00;95312.69;5022723;28;20593;-59
2021/08/18 09:18:54;;;;;;;15.07;8.38;;;;;;;16.84;100.00;95291.34;5029289;28;20033;-51
2021/08/18 09:21:34;;;;;;;13.83;7.97;;;;;;;17.05;100.00;95285.25;5031079;28;20028;-50
2021/08/18 09:24:12;;;;;;;12.00;6.97;;;;;;;17.15;100.00;95311.31;5033247;28;20388;-52
2021/08/18 09:26:49;;;;;;;14.30;8.02;;;;;;;17.23;100.00;95328.72;5032565;28;20093;-60
2021/08/18 09:29:34;;;;;;;10.10;6.93;;;;;;;17.56;100.00;95305.03;5032364;28;20033;-57
2021/08/18 09:32:37;;;;;;;13.23;7.63;;;;;;;17.73;100.00;95337.78;5037516;28;20439;-50
2021/08/18 09:35:04;;;;;;;12.82;8.05;;;;;;;18.02;100.00;95353.69;4946948;28;203436;-50
2021/08/18 09:37:31;;;;;;;12.23;7.47;;;;;;;18.39;100.00;95366.09;5025119;28;20034;-50
2021/08/18 09:39:59;;;;;;;13.30;7.15;;;;;;;18.66;100.00;95383.38;5033812;28;20032;-52
2021/08/18 09:42:30;;;;;;;15.48;7.55;;;;;;;18.88;100.00;95402.38;5035843;28;20053;-58
2021/08/18 09:45:25;;;;;;;10.52;7.07;;;;;;;19.22;100.00;95411.88;5037027;28;20021;-50
2021/08/18 09:48:19;;;;;;;13.40;7.28;;;;;;;20.01;100.00;95424.69;5042081;28;20329;-50
2021/08/18 09:51:12;;;;;;;11.93;6.97;;;;;;;20.39;100.00;95463.78;5030201;28;20391;-50
2021/08/18 09:53:44;;;;;;;10.98;7.20;;;;;;;20.67;100.00;95526.13;5040394;28;20021;-58
2021/08/18 09:56:14;;;;;;;11.20;6.53;;;;;;;21.21;100.00;95535.63;5035745;28;20029;-64
2021/08/18 09:58:48;;;;;;;9.98;6.60;;;;;;;21.62;100.00;95550.69;5016243;28;20432;-54
2021/08/18 10:01:18;;;;;;;9.77;6.50;;;;;;;21.81;100.00;95622.00;5039350;28;20021;-50
2021/08/18 10:03:49;;;;;;;10.35;6.40;;;;;;;21.93;100.00;95624.09;5047189;28;20013;-50
2021/08/18 10:06:15;;;;;;;10.10;5.72;;;;;;;21.85;100.00;95595.69;5054027;28;20507;-50
2021/08/18 10:08:43;;;;;;;11.65;6.80;;;;;;;22.31;100.00;95577.78;5039388;28;20111;-63
2021/08/18 10:11:15;;;;;;;11.50;6.60;;;;;;;22.60;100.00;95637.09;5060540;28;20074;-50
2021/08/18 10:13:49;;;;;;;8.65;5.88;;;;;;;22.80;100.00;95649.22;5058477;28;20453;-50
2021/08/18 10:16:23;;;;;;;7.88;5.20;;;;;;;22.84;100.00;95633.78;5036807;28;20372;-50
2021/08/18 10:18:52;;;;;;;9.63;5.22;;;;;;;22.57;100.00;95651.38;5043850;28;20021;-51
2021/08/18 10:21:22;;;;;;;8.68;5.07;;;;;;;22.59;100.00;95654.59;5044632;28;20025;-49
2021/08/18 10:23:47;;;;;;;10.68;6.47;;;;;;;22.37;100.00;95650.19;5043127;28;20087;-51
2021/08/18 10:26:38;;;;;;;10.50;6.30;;;;;;;22.27;100.00;95634.94;5030772;28;20056;-50
2021/08/18 10:29:04;;;;;;;8.40;5.72;;;;;;;22.71;100.00;95654.69;5021006;28;20041;-52
2021/08/18 10:31:45;;;;;;;10.43;5.95;;;;;;;22.90;100.00;95676.16;5032600;28;20033;-51
2021/08/18 10:34:23;;;;;;;10.35;6.40;;;;;;;22.77;100.00;95672.50;5031104;28;20498;-50
2021/08/18 10:36:50;;;;;;;9.75;6.00;;;;;;;22.41;100.00;95692.06;5032794;28;20369;-50
2021/08/18 10:39:19;;;;;;;9.02;6.20;;;;;;;22.25;100.00;95655.47;5032979;28;20041;-55
2021/08/18 10:41:59;;;;;;;9.25;5.85;;;;;;;21.93;100.00;95626.81;5059335;23;20558;-55
2021/08/18 10:44:54;;;;;;;7.60;5.35;;;;;;;22.27;100.00;95669.63;5046238;28;20056;-58
2021/08/18 10:47:22;;;;;;;7.00;3.97;;;;;;;22.75;100.00;95671.22;5050080;28;20059;-60
2021/08/18 10:49:58;;;;;;;7.93;4.28;;;;;;;23.07;100.00;95678.81;5033196;28;20026;-58
2021/08/18 10:52:30;;;;;;;6.85;4.25;;;;;;;23.03;100.00;95688.00;5049044;28;20025;-59
2021/08/18 10:55:09;;;;;;;6.80;4.07;;;;;;;23.28;100.00;95688.97;5045444;28;20021;-56
2021/08/18 10:57:50;;;;;;;9.75;5.15;;;;;;;23.27;100.00;95687.38;5050489;28;20051;-57
2021/08/18 11:00:41;;;;;;;5.43;4.30;;;;;;;23.81;100.00;95695.72;5051591;28;20036;-60
2021/08/18 11:03:07;;;;;;;6.32;4.43;;;;;;;23.95;100.00;95707.97;5045745;28;20100;-59
2021/08/18 11:05:46;;;;;;;7.35;4.60;;;;;;;24.26;100.00;95702.06;5052143;28;20099;-56
2021/08/18 11:08:15;;;;;;;7.25;5.40;;;;;;;24.57;100.00;95733.69;5049357;28;20037;-58
2021/08/18 11:10:55;;;;;;;8.30;5.43;;;;;;;24.11;100.00;95735.53;5050506;28;20031;-59
2021/08/18 11:13:49;;;;;;;8.35;5.38;;;;;;;24.24;100.00;95701.59;5039560;28;20376;-57
2021/08/18 11:16:19;;;;;;;9.00;5.55;;;;;;;23.93;100.00;95684.84;5045426;28;20419;-56
2021/08/18 11:18:49;;;;;;;14.43;5.63;;;;;;;24.18;100.00;95693.94;5033289;28;20083;-55
2021/08/18 11:21:32;;;;;;;8.52;5.35;;;;;;;23.90;100.00;95680.03;5038871;28;20028;-57
2021/08/18 11:23:59;;;;;;;7.65;5.38;;;;;;;24.10;100.00;95694.84;5043298;28;20100;-56
2021/08/18 11:26:27;;;;;;;8.98;4.93;;;;;;;24.59;100.00;95693.06;5040301;28;20502;-58